Abilene Regional Airport

Airport
ICAO code: 
KABI
IATA Code: 
ABI
Summary
ICAO Region: 
NAM
Territory: 
Location: 
Abilene, Texas,
Serving: 
Abilene
Elevation: 
1791 ft
Coordinates: 
Aerial View: 
32° 24' 40" N, 99° 40' 54.001" W
Airport LOS: 
Parallel Runway Operation
Metar
Observation
KABI 271052Z 20014G22KT 10SM BKN070 OVC090 12/M04 A3005 RMK AO2 SLP164 T01221044
Station
Abilene, Abilene Regional Airport
Date/Time
2021-11-27 10:52:00
Wind direction
200°
Wind speed
14 kts
Lowest cloud amount
broken clouds
Temperature
12.2°C
Dew point
-4.4°C
Humidity
31%
Weather condition
n/a

Description

Abilene Regional Airport is a public use airport located 5 km southeast of the central business district of Abilene, in Taylor County, Texas.

Climatology

Humid “subtropical” climate (Köppen climate classification Cfa) - characterized by hot, humid summers and cool winters. Significant amounts of precipitation occur in all seasons in most areas. Winter rainfall (and sometimes snowfall) is associated with large storms that the westerlies steer from west to east. Most summer rainfall occurs during thunderstorms and occasional tropical storms (hurricanes).

Runways

Designator Length Width Surface Rops
4/22 1121 30 ASP Yes/Yes
17L/35R 2194 46 ASP Yes/Yes
17R/35L 2195 46 ASP Yes/Yes
Airport map: 
Aerial View: 

SKYbrary Partners:

Safety knowledge contributed by: